sensor_id;sensor_type;location;lat;lon;timestamp;P1;durP1;ratioP1;P2;durP2;ratioP2
53313;SDS011;39202;51.468;7.146;2022-07-11T00:01:26;0.80;;;0.80;;
53313;SDS011;39202;51.468;7.146;2022-07-11T00:06:29;0.70;;;0.70;;
53313;SDS011;39202;51.468;7.146;2022-07-11T00:11:31;0.90;;;0.90;;
53313;SDS011;39202;51.468;7.146;2022-07-11T00:16:32;0.63;;;0.63;;
53313;SDS011;39202;51.468;7.146;2022-07-11T00:21:35;0.70;;;0.70;;
53313;SDS011;39202;51.468;7.146;2022-07-11T00:26:38;0.70;;;0.70;;
53313;SDS011;39202;51.468;7.146;2022-07-11T00:31:40;0.90;;;0.90;;
53313;SDS011;39202;51.468;7.146;2022-07-11T00:36:43;0.90;;;0.90;;
53313;SDS011;39202;51.468;7.146;2022-07-11T00:41:45;0.82;;;0.82;;
53313;SDS011;39202;51.468;7.146;2022-07-11T00:46:46;0.80;;;0.80;;
53313;SDS011;39202;51.468;7.146;2022-07-11T00:51:50;0.70;;;0.70;;
53313;SDS011;39202;51.468;7.146;2022-07-11T00:56:51;0.75;;;0.75;;
53313;SDS011;39202;51.468;7.146;2022-07-11T01:01:53;0.90;;;0.90;;
53313;SDS011;39202;51.468;7.146;2022-07-11T01:06:56;0.80;;;0.80;;
53313;SDS011;39202;51.468;7.146;2022-07-11T01:11:58;0.75;;;0.75;;
53313;SDS011;39202;51.468;7.146;2022-07-11T01:17:00;0.90;;;0.90;;
53313;SDS011;39202;51.468;7.146;2022-07-11T01:22:04;0.85;;;0.85;;
53313;SDS011;39202;51.468;7.146;2022-07-11T01:27:07;0.73;;;0.73;;
53313;SDS011;39202;51.468;7.146;2022-07-11T01:32:10;0.85;;;0.85;;
53313;SDS011;39202;51.468;7.146;2022-07-11T01:37:11;0.68;;;0.68;;
53313;SDS011;39202;51.468;7.146;2022-07-11T01:42:14;0.75;;;0.75;;
53313;SDS011;39202;51.468;7.146;2022-07-11T01:47:17;0.80;;;0.80;;
53313;SDS011;39202;51.468;7.146;2022-07-11T01:52:18;0.80;;;0.80;;
53313;SDS011;39202;51.468;7.146;2022-07-11T01:57:21;0.70;;;0.70;;
53313;SDS011;39202;51.468;7.146;2022-07-11T02:02:23;0.90;;;0.90;;
53313;SDS011;39202;51.468;7.146;2022-07-11T02:07:25;0.80;;;0.80;;
53313;SDS011;39202;51.468;7.146;2022-07-11T02:12:42;0.65;;;0.65;;
53313;SDS011;39202;51.468;7.146;2022-07-11T02:17:43;0.77;;;0.77;;
53313;SDS011;39202;51.468;7.146;2022-07-11T02:22:45;0.82;;;0.82;;
53313;SDS011;39202;51.468;7.146;2022-07-11T02:27:49;0.70;;;0.70;;
53313;SDS011;39202;51.468;7.146;2022-07-11T02:32:51;0.80;;;0.80;;
53313;SDS011;39202;51.468;7.146;2022-07-11T02:37:53;0.75;;;0.75;;
53313;SDS011;39202;51.468;7.146;2022-07-11T02:42:56;0.80;;;0.80;;
53313;SDS011;39202;51.468;7.146;2022-07-11T02:47:58;0.90;;;0.90;;
53313;SDS011;39202;51.468;7.146;2022-07-11T02:53:00;0.70;;;0.70;;
53313;SDS011;39202;51.468;7.146;2022-07-11T02:58:03;0.77;;;0.77;;
53313;SDS011;39202;51.468;7.146;2022-07-11T03:03:05;0.63;;;0.63;;
53313;SDS011;39202;51.468;7.146;2022-07-11T03:08:06;0.70;;;0.70;;
53313;SDS011;39202;51.468;7.146;2022-07-11T03:13:09;0.77;;;0.77;;
53313;SDS011;39202;51.468;7.146;2022-07-11T03:18:12;0.75;;;0.75;;
53313;SDS011;39202;51.468;7.146;2022-07-11T03:23:13;0.80;;;0.80;;
53313;SDS011;39202;51.468;7.146;2022-07-11T03:28:16;0.70;;;0.70;;
53313;SDS011;39202;51.468;7.146;2022-07-11T03:33:18;0.70;;;0.70;;
53313;SDS011;39202;51.468;7.146;2022-07-11T03:38:20;0.80;;;0.80;;
53313;SDS011;39202;51.468;7.146;2022-07-11T03:43:23;0.80;;;0.80;;
53313;SDS011;39202;51.468;7.146;2022-07-11T03:48:24;0.63;;;0.63;;
53313;SDS011;39202;51.468;7.146;2022-07-11T03:53:26;0.80;;;0.80;;
53313;SDS011;39202;51.468;7.146;2022-07-11T03:58:29;0.70;;;0.70;;
53313;SDS011;39202;51.468;7.146;2022-07-11T04:03:32;0.65;;;0.65;;
53313;SDS011;39202;51.468;7.146;2022-07-11T04:08:33;0.75;;;0.75;;
53313;SDS011;39202;51.468;7.146;2022-07-11T04:13:36;0.63;;;0.63;;
53313;SDS011;39202;51.468;7.146;2022-07-11T04:18:38;1.00;;;1.00;;
53313;SDS011;39202;51.468;7.146;2022-07-11T04:23:40;0.80;;;0.80;;
53313;SDS011;39202;51.468;7.146;2022-07-11T04:28:43;0.60;;;0.60;;
53313;SDS011;39202;51.468;7.146;2022-07-11T04:33:44;0.80;;;0.80;;
53313;SDS011;39202;51.468;7.146;2022-07-11T04:38:46;0.70;;;0.70;;
53313;SDS011;39202;51.468;7.146;2022-07-11T04:43:50;0.80;;;0.80;;
53313;SDS011;39202;51.468;7.146;2022-07-11T04:48:52;0.70;;;0.70;;
53313;SDS011;39202;51.468;7.146;2022-07-11T04:53:54;0.60;;;0.60;;
53313;SDS011;39202;51.468;7.146;2022-07-11T04:58:57;0.70;;;0.70;;
53313;SDS011;39202;51.468;7.146;2022-07-11T05:03:58;0.73;;;0.73;;
53313;SDS011;39202;51.468;7.146;2022-07-11T05:09:00;0.65;;;0.65;;
53313;SDS011;39202;51.468;7.146;2022-07-11T05:14:05;0.70;;;0.70;;
53313;SDS011;39202;51.468;7.146;2022-07-11T05:19:07;0.70;;;0.70;;
53313;SDS011;39202;51.468;7.146;2022-07-11T05:24:08;0.68;;;0.68;;
53313;SDS011;39202;51.468;7.146;2022-07-11T05:29:12;0.80;;;0.80;;
53313;SDS011;39202;51.468;7.146;2022-07-11T05:34:14;0.60;;;0.60;;
53313;SDS011;39202;51.468;7.146;2022-07-11T05:39:16;0.90;;;0.90;;
53313;SDS011;39202;51.468;7.146;2022-07-11T05:44:19;0.70;;;0.70;;
53313;SDS011;39202;51.468;7.146;2022-07-11T05:49:20;0.85;;;0.85;;
53313;SDS011;39202;51.468;7.146;2022-07-11T05:54:22;0.68;;;0.68;;
53313;SDS011;39202;51.468;7.146;2022-07-11T05:59:25;0.70;;;0.70;;
53313;SDS011;39202;51.468;7.146;2022-07-11T06:04:27;0.70;;;0.70;;
53313;SDS011;39202;51.468;7.146;2022-07-11T06:09:29;0.75;;;0.75;;
53313;SDS011;39202;51.468;7.146;2022-07-11T06:14:32;0.85;;;0.85;;
53313;SDS011;39202;51.468;7.146;2022-07-11T06:19:34;0.90;;;0.90;;
53313;SDS011;39202;51.468;7.146;2022-07-11T06:24:35;1.60;;;0.70;;
53313;SDS011;39202;51.468;7.146;2022-07-11T06:29:38;0.70;;;0.70;;
53313;SDS011;39202;51.468;7.146;2022-07-11T06:34:40;1.08;;;0.90;;
53313;SDS011;39202;51.468;7.146;2022-07-11T06:39:42;2.03;;;1.23;;
53313;SDS011;39202;51.468;7.146;2022-07-11T06:44:45;1.55;;;1.13;;
53313;SDS011;39202;51.468;7.146;2022-07-11T06:49:47;2.58;;;1.33;;
53313;SDS011;39202;51.468;7.146;2022-07-11T06:54:48;2.65;;;1.50;;
53313;SDS011;39202;51.468;7.146;2022-07-11T06:59:51;1.92;;;1.30;;
53313;SDS011;39202;51.468;7.146;2022-07-11T07:04:53;1.77;;;1.48;;
53313;SDS011;39202;51.468;7.146;2022-07-11T07:09:55;2.83;;;1.48;;
53313;SDS011;39202;51.468;7.146;2022-07-11T07:14:59;1.77;;;1.40;;
53313;SDS011;39202;51.468;7.146;2022-07-11T07:20:01;1.75;;;1.30;;
53313;SDS011;39202;51.468;7.146;2022-07-11T07:25:05;2.15;;;1.67;;
53313;SDS011;39202;51.468;7.146;2022-07-11T07:30:10;2.20;;;1.40;;
53313;SDS011;39202;51.468;7.146;2022-07-11T07:35:12;1.90;;;1.30;;
53313;SDS011;39202;51.468;7.146;2022-07-11T07:40:14;1.70;;;1.45;;
53313;SDS011;39202;51.468;7.146;2022-07-11T07:45:17;2.10;;;1.35;;
53313;SDS011;39202;51.468;7.146;2022-07-11T07:50:19;2.13;;;1.50;;
53313;SDS011;39202;51.468;7.146;2022-07-11T07:55:22;3.17;;;1.60;;
53313;SDS011;39202;51.468;7.146;2022-07-11T08:00:25;2.65;;;1.48;;
53313;SDS011;39202;51.468;7.146;2022-07-11T08:05:49;3.08;;;1.58;;
53313;SDS011;39202;51.468;7.146;2022-07-11T08:10:51;2.10;;;1.42;;
53313;SDS011;39202;51.468;7.146;2022-07-11T08:15:54;1.33;;;1.13;;
53313;SDS011;39202;51.468;7.146;2022-07-11T08:20:56;2.78;;;1.42;;
53313;SDS011;39202;51.468;7.146;2022-07-11T08:25:58;2.63;;;1.60;;
53313;SDS011;39202;51.468;7.146;2022-07-11T08:31:01;1.85;;;1.55;;
53313;SDS011;39202;51.468;7.146;2022-07-11T08:36:03;2.17;;;1.52;;
53313;SDS011;39202;51.468;7.146;2022-07-11T08:41:06;2.00;;;1.50;;
53313;SDS011;39202;51.468;7.146;2022-07-11T08:46:09;1.92;;;1.73;;
53313;SDS011;39202;51.468;7.146;2022-07-11T08:51:12;1.67;;;1.50;;
53313;SDS011;39202;51.468;7.146;2022-07-11T08:56:14;2.05;;;1.40;;
53313;SDS011;39202;51.468;7.146;2022-07-11T09:01:19;1.83;;;1.50;;
53313;SDS011;39202;51.468;7.146;2022-07-11T09:06:24;1.88;;;1.50;;
53313;SDS011;39202;51.468;7.146;2022-07-11T09:11:26;1.60;;;1.50;;
53313;SDS011;39202;51.468;7.146;2022-07-11T09:16:29;1.88;;;1.48;;
53313;SDS011;39202;51.468;7.146;2022-07-11T09:21:31;1.58;;;1.42;;
53313;SDS011;39202;51.468;7.146;2022-07-11T09:26:51;1.80;;;1.50;;
53313;SDS011;39202;51.468;7.146;2022-07-11T09:31:54;2.25;;;1.40;;
53313;SDS011;39202;51.468;7.146;2022-07-11T09:36:56;2.30;;;1.30;;
53313;SDS011;39202;51.468;7.146;2022-07-11T09:41:58;2.45;;;1.35;;
53313;SDS011;39202;51.468;7.146;2022-07-11T09:47:07;1.50;;;1.40;;
53313;SDS011;39202;51.468;7.146;2022-07-11T09:52:10;1.40;;;1.30;;
53313;SDS011;39202;51.468;7.146;2022-07-11T09:57:13;1.45;;;1.35;;
53313;SDS011;39202;51.468;7.146;2022-07-11T10:02:17;1.55;;;1.45;;
53313;SDS011;39202;51.468;7.146;2022-07-11T10:07:19;1.45;;;1.30;;
53313;SDS011;39202;51.468;7.146;2022-07-11T10:12:20;2.38;;;1.35;;
53313;SDS011;39202;51.468;7.146;2022-07-11T10:17:27;1.50;;;1.40;;
53313;SDS011;39202;51.468;7.146;2022-07-11T10:22:36;1.45;;;1.35;;
53313;SDS011;39202;51.468;7.146;2022-07-11T10:27:42;1.50;;;1.40;;
53313;SDS011;39202;51.468;7.146;2022-07-11T10:33:00;1.60;;;1.30;;
53313;SDS011;39202;51.468;7.146;2022-07-11T10:38:06;1.50;;;1.40;;
53313;SDS011;39202;51.468;7.146;2022-07-11T10:43:08;2.65;;;1.30;;
53313;SDS011;39202;51.468;7.146;2022-07-11T10:48:11;1.40;;;1.30;;
53313;SDS011;39202;51.468;7.146;2022-07-11T10:53:20;1.20;;;1.20;;
53313;SDS011;39202;51.468;7.146;2022-07-11T10:58:25;1.40;;;1.30;;
53313;SDS011;39202;51.468;7.146;2022-07-11T11:03:31;1.80;;;1.30;;
53313;SDS011;39202;51.468;7.146;2022-07-11T11:08:42;1.30;;;1.20;;
53313;SDS011;39202;51.468;7.146;2022-07-11T11:13:44;1.67;;;1.48;;
53313;SDS011;39202;51.468;7.146;2022-07-11T11:18:48;1.48;;;1.38;;
53313;SDS011;39202;51.468;7.146;2022-07-11T11:24:02;1.45;;;1.38;;
53313;SDS011;39202;51.468;7.146;2022-07-11T11:29:08;1.30;;;1.20;;
53313;SDS011;39202;51.468;7.146;2022-07-11T11:34:11;1.42;;;1.33;;
53313;SDS011;39202;51.468;7.146;2022-07-11T11:39:20;1.50;;;1.40;;
53313;SDS011;39202;51.468;7.146;2022-07-11T11:44:22;1.45;;;1.20;;
53313;SDS011;39202;51.468;7.146;2022-07-11T11:49:25;1.17;;;1.17;;
53313;SDS011;39202;51.468;7.146;2022-07-11T11:54:27;1.27;;;1.27;;
53313;SDS011;39202;51.468;7.146;2022-07-11T11:59:29;1.17;;;1.17;;
53313;SDS011;39202;51.468;7.146;2022-07-11T12:04:34;1.50;;;1.40;;
53313;SDS011;39202;51.468;7.146;2022-07-11T12:09:36;1.42;;;1.33;;
53313;SDS011;39202;51.468;7.146;2022-07-11T12:14:48;1.40;;;1.30;;
53313;SDS011;39202;51.468;7.146;2022-07-11T12:19:52;1.27;;;1.20;;
53313;SDS011;39202;51.468;7.146;2022-07-11T12:24:54;1.20;;;1.10;;
53313;SDS011;39202;51.468;7.146;2022-07-11T12:29:56;1.50;;;1.40;;
53313;SDS011;39202;51.468;7.146;2022-07-11T12:34:59;1.08;;;1.08;;
53313;SDS011;39202;51.468;7.146;2022-07-11T12:40:12;1.63;;;1.20;;
53313;SDS011;39202;51.468;7.146;2022-07-11T12:45:15;1.20;;;1.17;;
53313;SDS011;39202;51.468;7.146;2022-07-11T12:50:19;1.20;;;1.20;;
53313;SDS011;39202;51.468;7.146;2022-07-11T12:55:23;1.30;;;1.20;;
53313;SDS011;39202;51.468;7.146;2022-07-11T13:00:25;1.38;;;1.27;;
53313;SDS011;39202;51.468;7.146;2022-07-11T13:05:28;1.30;;;1.20;;
53313;SDS011;39202;51.468;7.146;2022-07-11T13:10:30;1.17;;;1.17;;
53313;SDS011;39202;51.468;7.146;2022-07-11T13:15:50;1.20;;;1.20;;
53313;SDS011;39202;51.468;7.146;2022-07-11T13:20:53;1.20;;;1.20;;
53313;SDS011;39202;51.468;7.146;2022-07-11T13:25:55;1.23;;;1.20;;
53313;SDS011;39202;51.468;7.146;2022-07-11T13:30:57;1.13;;;1.13;;
53313;SDS011;39202;51.468;7.146;2022-07-11T13:36:01;1.20;;;1.10;;
53313;SDS011;39202;51.468;7.146;2022-07-11T13:41:02;1.40;;;1.27;;
53313;SDS011;39202;51.468;7.146;2022-07-11T13:46:05;0.93;;;0.93;;
53313;SDS011;39202;51.468;7.146;2022-07-11T13:51:08;1.20;;;1.10;;
53313;SDS011;39202;51.468;7.146;2022-07-11T13:56:10;1.00;;;1.00;;
53313;SDS011;39202;51.468;7.146;2022-07-11T14:01:12;1.10;;;1.10;;
53313;SDS011;39202;51.468;7.146;2022-07-11T14:06:15;1.10;;;1.10;;
53313;SDS011;39202;51.468;7.146;2022-07-11T14:11:17;1.33;;;1.20;;
53313;SDS011;39202;51.468;7.146;2022-07-11T14:16:18;1.30;;;1.20;;
53313;SDS011;39202;51.468;7.146;2022-07-11T14:21:23;1.00;;;1.00;;
53313;SDS011;39202;51.468;7.146;2022-07-11T14:26:24;1.10;;;1.10;;
53313;SDS011;39202;51.468;7.146;2022-07-11T14:31:26;1.05;;;1.05;;
53313;SDS011;39202;51.468;7.146;2022-07-11T14:36:29;1.10;;;1.10;;
53313;SDS011;39202;51.468;7.146;2022-07-11T14:41:31;1.10;;;1.10;;
53313;SDS011;39202;51.468;7.146;2022-07-11T14:46:33;1.08;;;1.08;;
53313;SDS011;39202;51.468;7.146;2022-07-11T14:51:36;1.10;;;1.10;;
53313;SDS011;39202;51.468;7.146;2022-07-11T14:56:39;1.08;;;1.08;;
53313;SDS011;39202;51.468;7.146;2022-07-11T15:01:41;1.20;;;1.10;;
53313;SDS011;39202;51.468;7.146;2022-07-11T15:06:44;1.20;;;1.10;;
53313;SDS011;39202;51.468;7.146;2022-07-11T15:12:03;1.00;;;1.00;;
53313;SDS011;39202;51.468;7.146;2022-07-11T15:17:24;1.02;;;1.02;;
53313;SDS011;39202;51.468;7.146;2022-07-11T15:22:27;1.38;;;1.27;;
53313;SDS011;39202;51.468;7.146;2022-07-11T15:27:29;1.23;;;1.23;;
53313;SDS011;39202;51.468;7.146;2022-07-11T15:32:31;1.38;;;1.30;;
53313;SDS011;39202;51.468;7.146;2022-07-11T15:37:34;0.93;;;0.93;;
53313;SDS011;39202;51.468;7.146;2022-07-11T15:42:36;1.10;;;1.10;;
53313;SDS011;39202;51.468;7.146;2022-07-11T15:47:38;1.08;;;1.08;;
53313;SDS011;39202;51.468;7.146;2022-07-11T15:52:41;1.17;;;1.17;;
53313;SDS011;39202;51.468;7.146;2022-07-11T15:57:42;0.95;;;0.95;;
53313;SDS011;39202;51.468;7.146;2022-07-11T16:02:45;1.10;;;1.10;;
53313;SDS011;39202;51.468;7.146;2022-07-11T16:07:49;1.20;;;1.20;;
53313;SDS011;39202;51.468;7.146;2022-07-11T16:12:50;0.98;;;0.98;;
53313;SDS011;39202;51.468;7.146;2022-07-11T16:17:52;1.17;;;1.17;;
53313;SDS011;39202;51.468;7.146;2022-07-11T16:22:55;1.30;;;1.20;;
53313;SDS011;39202;51.468;7.146;2022-07-11T16:27:57;1.10;;;1.10;;
53313;SDS011;39202;51.468;7.146;2022-07-11T16:33:00;1.20;;;1.20;;
53313;SDS011;39202;51.468;7.146;2022-07-11T16:38:03;1.20;;;1.08;;
53313;SDS011;39202;51.468;7.146;2022-07-11T16:43:05;1.08;;;1.08;;
53313;SDS011;39202;51.468;7.146;2022-07-11T16:48:23;1.35;;;1.25;;
53313;SDS011;39202;51.468;7.146;2022-07-11T16:53:29;1.27;;;1.27;;
53313;SDS011;39202;51.468;7.146;2022-07-11T16:58:32;1.20;;;1.20;;
53313;SDS011;39202;51.468;7.146;2022-07-11T17:03:34;1.10;;;1.10;;
53313;SDS011;39202;51.468;7.146;2022-07-11T17:08:37;1.10;;;1.10;;
53313;SDS011;39202;51.468;7.146;2022-07-11T17:13:44;1.10;;;1.10;;
53313;SDS011;39202;51.468;7.146;2022-07-11T17:18:47;1.08;;;1.08;;
53313;SDS011;39202;51.468;7.146;2022-07-11T17:23:50;1.10;;;1.10;;
53313;SDS011;39202;51.468;7.146;2022-07-11T17:28:54;1.00;;;1.00;;
53313;SDS011;39202;51.468;7.146;2022-07-11T17:33:55;0.90;;;0.90;;
53313;SDS011;39202;51.468;7.146;2022-07-11T17:38:58;1.00;;;1.00;;
53313;SDS011;39202;51.468;7.146;2022-07-11T17:44:00;1.00;;;1.00;;
53313;SDS011;39202;51.468;7.146;2022-07-11T17:49:02;1.02;;;1.02;;
53313;SDS011;39202;51.468;7.146;2022-07-11T17:54:05;1.10;;;1.10;;
53313;SDS011;39202;51.468;7.146;2022-07-11T17:59:07;1.00;;;1.00;;
53313;SDS011;39202;51.468;7.146;2022-07-11T18:04:09;1.13;;;1.13;;
53313;SDS011;39202;51.468;7.146;2022-07-11T18:09:12;1.00;;;1.00;;
53313;SDS011;39202;51.468;7.146;2022-07-11T18:14:15;1.00;;;1.00;;
53313;SDS011;39202;51.468;7.146;2022-07-11T18:19:17;2.53;;;1.20;;
53313;SDS011;39202;51.468;7.146;2022-07-11T18:24:20;1.10;;;1.10;;
53313;SDS011;39202;51.468;7.146;2022-07-11T18:29:22;1.00;;;1.00;;
53313;SDS011;39202;51.468;7.146;2022-07-11T18:34:24;1.10;;;1.10;;
53313;SDS011;39202;51.468;7.146;2022-07-11T18:39:27;0.90;;;0.90;;
53313;SDS011;39202;51.468;7.146;2022-07-11T18:44:47;1.20;;;1.10;;
53313;SDS011;39202;51.468;7.146;2022-07-11T18:49:48;1.00;;;1.00;;
53313;SDS011;39202;51.468;7.146;2022-07-11T18:54:53;0.90;;;0.90;;
53313;SDS011;39202;51.468;7.146;2022-07-11T18:59:55;0.90;;;0.90;;
53313;SDS011;39202;51.468;7.146;2022-07-11T19:04:58;1.00;;;1.00;;
53313;SDS011;39202;51.468;7.146;2022-07-11T19:10:01;1.00;;;1.00;;
53313;SDS011;39202;51.468;7.146;2022-07-11T19:15:03;0.90;;;0.90;;
53313;SDS011;39202;51.468;7.146;2022-07-11T19:20:06;1.00;;;1.00;;
53313;SDS011;39202;51.468;7.146;2022-07-11T19:25:10;0.90;;;0.90;;
53313;SDS011;39202;51.468;7.146;2022-07-11T19:30:12;1.08;;;1.08;;
53313;SDS011;39202;51.468;7.146;2022-07-11T19:35:13;1.45;;;1.10;;
53313;SDS011;39202;51.468;7.146;2022-07-11T19:40:16;1.10;;;1.00;;
53313;SDS011;39202;51.468;7.146;2022-07-11T19:45:18;1.17;;;1.17;;
53313;SDS011;39202;51.468;7.146;2022-07-11T19:50:20;1.00;;;1.00;;
53313;SDS011;39202;51.468;7.146;2022-07-11T19:55:24;1.00;;;1.00;;
53313;SDS011;39202;51.468;7.146;2022-07-11T20:00:43;1.10;;;1.10;;
53313;SDS011;39202;51.468;7.146;2022-07-11T20:05:45;1.00;;;1.00;;
53313;SDS011;39202;51.468;7.146;2022-07-11T20:10:48;1.02;;;1.02;;
53313;SDS011;39202;51.468;7.146;2022-07-11T20:15:50;0.88;;;0.88;;
53313;SDS011;39202;51.468;7.146;2022-07-11T20:20:52;1.08;;;1.00;;
53313;SDS011;39202;51.468;7.146;2022-07-11T20:25:56;0.98;;;0.98;;
53313;SDS011;39202;51.468;7.146;2022-07-11T20:30:58;0.90;;;0.90;;
53313;SDS011;39202;51.468;7.146;2022-07-11T20:36:00;0.98;;;0.98;;
53313;SDS011;39202;51.468;7.146;2022-07-11T20:41:03;0.90;;;0.90;;
53313;SDS011;39202;51.468;7.146;2022-07-11T20:46:05;1.00;;;1.00;;
53313;SDS011;39202;51.468;7.146;2022-07-11T20:51:08;0.90;;;0.90;;
53313;SDS011;39202;51.468;7.146;2022-07-11T20:56:12;0.93;;;0.93;;
53313;SDS011;39202;51.468;7.146;2022-07-11T21:01:14;1.10;;;1.00;;
53313;SDS011;39202;51.468;7.146;2022-07-11T21:06:15;1.00;;;1.00;;
53313;SDS011;39202;51.468;7.146;2022-07-11T21:11:19;0.93;;;0.93;;
53313;SDS011;39202;51.468;7.146;2022-07-11T21:16:20;1.15;;;1.05;;
53313;SDS011;39202;51.468;7.146;2022-07-11T21:21:22;1.05;;;1.05;;
53313;SDS011;39202;51.468;7.146;2022-07-11T21:26:25;1.10;;;1.10;;
53313;SDS011;39202;51.468;7.146;2022-07-11T21:31:27;0.90;;;0.90;;
53313;SDS011;39202;51.468;7.146;2022-07-11T21:36:28;0.90;;;0.90;;
53313;SDS011;39202;51.468;7.146;2022-07-11T21:41:31;1.13;;;1.02;;
53313;SDS011;39202;51.468;7.146;2022-07-11T21:46:33;1.00;;;1.00;;
53313;SDS011;39202;51.468;7.146;2022-07-11T21:51:35;0.80;;;0.80;;
53313;SDS011;39202;51.468;7.146;2022-07-11T21:56:38;0.95;;;0.90;;
53313;SDS011;39202;51.468;7.146;2022-07-11T22:01:40;1.15;;;0.98;;
53313;SDS011;39202;51.468;7.146;2022-07-11T22:06:42;1.02;;;1.02;;
53313;SDS011;39202;51.468;7.146;2022-07-11T22:11:45;0.75;;;0.75;;
53313;SDS011;39202;51.468;7.146;2022-07-11T22:16:46;1.23;;;0.95;;
53313;SDS011;39202;51.468;7.146;2022-07-11T22:21:48;1.15;;;1.15;;
53313;SDS011;39202;51.468;7.146;2022-07-11T22:26:51;0.88;;;0.88;;
53313;SDS011;39202;51.468;7.146;2022-07-11T22:31:53;1.00;;;1.00;;
53313;SDS011;39202;51.468;7.146;2022-07-11T22:36:55;1.17;;;1.02;;
53313;SDS011;39202;51.468;7.146;2022-07-11T22:41:58;0.80;;;0.80;;
53313;SDS011;39202;51.468;7.146;2022-07-11T22:46:59;0.80;;;0.80;;
53313;SDS011;39202;51.468;7.146;2022-07-11T22:52:01;0.70;;;0.70;;
53313;SDS011;39202;51.468;7.146;2022-07-11T22:57:05;0.90;;;0.90;;
53313;SDS011;39202;51.468;7.146;2022-07-11T23:02:06;0.80;;;0.80;;
53313;SDS011;39202;51.468;7.146;2022-07-11T23:07:10;1.15;;;0.90;;
53313;SDS011;39202;51.468;7.146;2022-07-11T23:12:13;0.82;;;0.82;;
53313;SDS011;39202;51.468;7.146;2022-07-11T23:17:14;0.80;;;0.80;;
53313;SDS011;39202;51.468;7.146;2022-07-11T23:22:16;0.63;;;0.63;;
53313;SDS011;39202;51.468;7.146;2022-07-11T23:27:19;1.92;;;0.82;;
53313;SDS011;39202;51.468;7.146;2022-07-11T23:32:22;0.80;;;0.80;;
53313;SDS011;39202;51.468;7.146;2022-07-11T23:37:24;1.10;;;0.90;;
53313;SDS011;39202;51.468;7.146;2022-07-11T23:42:27;0.80;;;0.80;;
53313;SDS011;39202;51.468;7.146;2022-07-11T23:47:29;0.70;;;0.70;;
53313;SDS011;39202;51.468;7.146;2022-07-11T23:52:31;0.90;;;0.90;;
53313;SDS011;39202;51.468;7.146;2022-07-11T23:57:34;0.88;;;0.88;;
